x

Great Slave Lake, North Arm (45150) Wave Buoy

6:00pm - Sat 1st Aug 2015 All times are UTC.

  • Sig Wave height 1.6ft
  • Peak Period 3s
  • Wind
    9mph, 11mph gusts
  • Sea Temp 58°f
  • Air Temp 60°f
  • Sea Pressure 1016.1mb

More Historic Weather Station data

Upgrade to MSW Pro to gain access to the past 30 days of data for over 8000 Wavebouys and Weather Stations around the globe.

Join Pro

Comparision Forecast

View Surf forecast
   
Sat 08/01 6:00pm 1.6ft 3s 9 11 mph 1016.1mb 58f 60f
5:00pm 1.6ft 3s 11 13 mph 1016.1mb 58f 60f
4:00pm 1.6ft 14s 9
mph
1016.2mb 57f 59f
3:00pm 1.3ft 3s 9 11 mph 1015.8mb 57f 59f
2:00pm 1.6ft 3s 9 11 mph 1015.7mb 57f 59f
1:00pm 1.6ft 14s 11 13 mph 1015.3mb 57f 59f
12:00pm 1.6ft 3s 13 16 mph 1015.1mb 57f 59f
11:00am 1.3ft 14s 11 13 mph 1015mb 57f 59f
10:00am 0.7ft 2s 9 11 mph 1014.8mb 57f 59f
9:00am 0.7ft 2s 7 9 mph 1014.9mb 57f 59f
8:00am 0.7ft 3s 9
mph
1015mb 57f 60f
7:00am 0.7ft 2s 9
mph
1015.1mb 57f 60f
6:00am 0.3ft 2s 4 7 mph 1015.2mb 57f 59f
5:00am 0.3ft 2s 9 11 mph 1015.1mb 57f 62f
4:00am 0.3ft 2s 4
mph
1015mb 58f 59f
3:00am 0.3ft 2s 2 4 mph 1015.2mb 58f 60f
2:00am 0.3ft 2s 2 4 mph 1015.2mb 58f 60f
1:00am 0.7ft 3s 4
mph
1015.5mb 58f 60f
12:00am 0.7ft 3s 2
mph
1015.5mb 58f 61f
Fri 07/31 11:00pm 0.7ft 3s 4 7 mph 1015.7mb 58f 61f
10:00pm 1ft 3s 7
mph
1015.8mb 57f 60f
9:00pm 1.3ft 14s 9
mph
1015.8mb 56f 60f
8:00pm 1.3ft 3s 9 11 mph 1016mb 56f 60f
7:00pm 1.3ft 14s 11 13 mph 1016.1mb 56f 60f
6:00pm 1.3ft 14s 9 11 mph 1016.5mb 55f 59f
5:00pm 1.6ft 3s 11 16 mph 1016.7mb 55f 58f
4:00pm 1.6ft 14s 13 18 mph 1016.5mb 55f 57f
3:00pm 1.6ft 13s 13 16 mph 1016.3mb 56f 57f
2:00pm 1.6ft 14s 13 16 mph 1016.3mb 56f 58f
1:00pm 1.6ft 3s 11 13 mph 1016.1mb 56f 58f
12:00pm 1.3ft 14s 11 13 mph 1015.9mb 56f 58f
11:00am 1.3ft 14s 11 13 mph 1015.8mb 56f 58f
10:00am 0.7ft 2s 13 18 mph 1015.5mb 57f 58f
9:00am 0.3ft 14s 9
mph
1015.2mb 57f 59f
8:00am 0.3ft 14s 7 9 mph 1015.3mb 57f 58f
7:00am 0.7ft 12s 4 9 mph 1015.2mb 57f 58f
6:00am 0.7ft 14s 2 4 mph 1015mb 57f 58f
5:00am 0.7ft 13s 4
mph
1014.8mb 57f 58f
4:00am 0.7ft 14s 4 7 mph 1014.6mb 56f 58f
3:00am 0.7ft 3s 7
mph
1014.4mb 57f 58f
2:00am 1ft 14s 7 9 mph 1014.3mb 57f 59f
1:00am 1.3ft 3s 7 9 mph 1014.4mb 57f 59f
12:00am 1.3ft 14s 9
mph
1014.2mb 57f 59f
Thu 07/30 11:00pm 1.3ft 3s 11 13 mph 1014.1mb 57f 60f
10:00pm 0.7ft 2s 11 13 mph 1014.2mb 57f 60f
9:00pm 0.3ft 2s 9
mph
1014.3mb 58f 59f
8:00pm 0.3ft 3s 9
mph
1014.1mb 58f 59f
7:00pm  -  3s 4
mph
1014.1mb 58f 59f
6:00pm  -  3s 7 9 mph 1013.9mb 58f 59f
5:00pm 0.3ft 2s 2 4 mph 1013.6mb 58f 60f
4:00pm 0.3ft 2s 2 4 mph 1013.4mb 57f 59f
3:00pm 0.3ft 2s 7
mph
1013.1mb 56f 58f
2:00pm 0.3ft 2s 2 4 mph 1012.7mb 56f 59f
1:00pm 0.3ft 2s 4 7 mph 1012.4mb 56f 59f
12:00pm 0.3ft 2s 7
mph
1012.2mb 56f 58f
11:00am 0.3ft 2s 4
mph
1011.9mb 56f 58f
10:00am 0.3ft 2s 4 7 mph 1011.4mb 56f 58f
9:00am 0.7ft 2s 7
mph
1011.1mb 57f 58f
8:00am 0.3ft 2s 9 11 mph 1010.9mb 57f 59f
7:00am 0.3ft 2s 7 9 mph 1010.9mb 57f 58f
6:00am 0.3ft 2s 7
mph
1010.9mb 56f 58f
5:00am 0.3ft 2s 7
mph
1010.8mb 56f 59f
4:00am 0.7ft 14s 4 7 mph 1010.7mb 56f 59f
3:00am 0.7ft 3s 7
mph
1010.3mb 57f 60f
2:00am 0.7ft 3s 9
mph
1009.9mb 57f 61f
1:00am 1ft 3s 7 9 mph 1010mb 57f 60f
12:00am 1ft 3s 9
mph
1010.1mb 57f 60f
Wed 07/29 11:00pm 1.3ft 3s 9 11 mph 1010mb 57f 60f
10:00pm 1.3ft 3s 11
mph
1010mb 57f 60f
9:00pm 1.3ft 13s 11 13 mph 1010mb 57f 60f
8:00pm 1.3ft 14s 11
mph
1010mb 57f 59f
7:00pm 1.3ft 4s 9
mph
1010mb 57f 58f
6:00pm 1.6ft 14s 9 11 mph 1009.8mb 56f 58f
5:00pm 1.6ft 3s 11 13 mph 1009.6mb 57f 58f
3:00pm 1.6ft 13s 16 18 mph 1008.9mb 57f 59f
2:00pm 1.3ft 14s 13 16 mph 1009mb 57f 59f
1:00pm 0.7ft 2s 13 16 mph 1008.8mb 57f 60f
12:00pm 0.3ft 2s 9 11 mph 1008.7mb 58f 60f
11:00am  -  3s 9
mph
1008.6mb 59f 60f
10:00am  -  2s 4 7 mph 1008.7mb 59f 61f
9:00am  -  2s 4 7 mph 1008.7mb 60f 61f
8:00am  -  2s 4 7 mph 1008.8mb 61f 61f
7:00am  -  2s 4
mph
1009mb 61f 61f
6:00am  -  2s 2
mph
1009.1mb 61f 61f
5:00am  -  3s 2 4 mph 1009.1mb 61f 62f
4:00am 0.3ft 2s 2
mph
1009.1mb 62f 63f
3:00am 0.3ft 3s 2 4 mph 1009.2mb 62f 62f
2:00am 0.3ft 2s 4 7 mph 1009.1mb 62f 64f
1:00am 0.3ft 2s 7 9 mph 1009.2mb 64f 65f
12:00am 0.3ft 3s 2
mph
1009.4mb 61f 64f
Tue 07/28 11:00pm 0.3ft 3s  -  2 mph 1009.6mb 60f 65f
10:00pm 0.3ft 2s  -  2 mph 1009.8mb 61f 63f
9:00pm 0.3ft 2s 2
mph
1009.8mb 59f 61f
8:00pm 0.3ft 2s 2 4 mph 1010mb 59f 60f